sensor_id;sensor_type;location;lat;lon;timestamp;temperature;humidity
58413;DHT22;44209;52.952;6.790;2023-06-10T00:02:07;17.70;99.90
58413;DHT22;44209;52.952;6.790;2023-06-10T00:04:33;17.70;99.90
58413;DHT22;44209;52.952;6.790;2023-06-10T00:06:59;17.60;99.90
58413;DHT22;44209;52.952;6.790;2023-06-10T00:09:24;17.60;99.90
58413;DHT22;44209;52.952;6.790;2023-06-10T00:11:51;17.60;99.90
58413;DHT22;44209;52.952;6.790;2023-06-10T00:14:16;17.50;99.90
58413;DHT22;44209;52.952;6.790;2023-06-10T00:16:42;17.50;99.90
58413;DHT22;44209;52.952;6.790;2023-06-10T00:19:10;17.40;99.90
58413;DHT22;44209;52.952;6.790;2023-06-10T00:21:39;17.40;99.90
58413;DHT22;44209;52.952;6.790;2023-06-10T00:24:07;17.40;99.90
58413;DHT22;44209;52.952;6.790;2023-06-10T00:26:40;17.40;99.90
58413;DHT22;44209;52.952;6.790;2023-06-10T00:29:06;17.30;99.90
58413;DHT22;44209;52.952;6.790;2023-06-10T00:31:34;17.30;99.90
58413;DHT22;44209;52.952;6.790;2023-06-10T00:34:00;17.30;99.90
58413;DHT22;44209;52.952;6.790;2023-06-10T00:36:26;17.30;99.90
58413;DHT22;44209;52.952;6.790;2023-06-10T00:38:52;17.20;99.90
58413;DHT22;44209;52.952;6.790;2023-06-10T00:41:18;17.20;99.90
58413;DHT22;44209;52.952;6.790;2023-06-10T00:43:43;17.20;99.90
58413;DHT22;44209;52.952;6.790;2023-06-10T00:46:11;17.10;99.90
58413;DHT22;44209;52.952;6.790;2023-06-10T00:48:40;17.10;99.90
58413;DHT22;44209;52.952;6.790;2023-06-10T00:51:07;17.10;99.90
58413;DHT22;44209;52.952;6.790;2023-06-10T00:53:35;17.10;99.90
58413;DHT22;44209;52.952;6.790;2023-06-10T00:56:02;17.00;99.90
58413;DHT22;44209;52.952;6.790;2023-06-10T00:58:28;17.00;99.90
58413;DHT22;44209;52.952;6.790;2023-06-10T01:00:54;17.00;99.90
58413;DHT22;44209;52.952;6.790;2023-06-10T01:03:19;17.00;99.90
58413;DHT22;44209;52.952;6.790;2023-06-10T01:05:51;16.90;99.90
58413;DHT22;44209;52.952;6.790;2023-06-10T01:08:38;16.90;99.90
58413;DHT22;44209;52.952;6.790;2023-06-10T01:11:10;16.90;99.90
58413;DHT22;44209;52.952;6.790;2023-06-10T01:13:40;16.80;99.90
58413;DHT22;44209;52.952;6.790;2023-06-10T01:16:07;16.80;99.90
58413;DHT22;44209;52.952;6.790;2023-06-10T01:18:33;16.80;99.90
58413;DHT22;44209;52.952;6.790;2023-06-10T01:20:59;16.70;99.90
58413;DHT22;44209;52.952;6.790;2023-06-10T01:23:24;16.60;99.90
58413;DHT22;44209;52.952;6.790;2023-06-10T01:25:56;16.60;99.90
58413;DHT22;44209;52.952;6.790;2023-06-10T01:31:18;16.50;99.90
58413;DHT22;44209;52.952;6.790;2023-06-10T01:33:51;16.40;99.90
58413;DHT22;44209;52.952;6.790;2023-06-10T01:36:18;16.40;99.90
58413;DHT22;44209;52.952;6.790;2023-06-10T01:38:46;16.30;99.90
58413;DHT22;44209;52.952;6.790;2023-06-10T01:41:14;16.30;99.90
58413;DHT22;44209;52.952;6.790;2023-06-10T01:43:43;16.20;99.90
58413;DHT22;44209;52.952;6.790;2023-06-10T01:46:09;16.20;99.90
58413;DHT22;44209;52.952;6.790;2023-06-10T01:48:34;16.20;99.90
58413;DHT22;44209;52.952;6.790;2023-06-10T01:51:00;16.20;99.90
58413;DHT22;44209;52.952;6.790;2023-06-10T01:53:26;16.10;99.90
58413;DHT22;44209;52.952;6.790;2023-06-10T01:55:52;16.10;99.90
58413;DHT22;44209;52.952;6.790;2023-06-10T01:58:18;16.00;99.90
58413;DHT22;44209;52.952;6.790;2023-06-10T02:00:43;16.00;99.90
58413;DHT22;44209;52.952;6.790;2023-06-10T02:03:09;15.90;99.90
58413;DHT22;44209;52.952;6.790;2023-06-10T02:05:35;15.90;99.90
58413;DHT22;44209;52.952;6.790;2023-06-10T02:08:00;15.80;99.90
58413;DHT22;44209;52.952;6.790;2023-06-10T02:10:26;15.80;99.90
58413;DHT22;44209;52.952;6.790;2023-06-10T02:12:52;15.70;99.90
58413;DHT22;44209;52.952;6.790;2023-06-10T02:15:18;15.70;99.90
58413;DHT22;44209;52.952;6.790;2023-06-10T02:17:44;15.60;99.90
58413;DHT22;44209;52.952;6.790;2023-06-10T02:20:11;15.50;99.90
58413;DHT22;44209;52.952;6.790;2023-06-10T02:22:37;15.50;99.90
58413;DHT22;44209;52.952;6.790;2023-06-10T02:25:03;15.50;99.90
58413;DHT22;44209;52.952;6.790;2023-06-10T02:27:30;15.40;99.90
58413;DHT22;44209;52.952;6.790;2023-06-10T02:29:57;15.40;99.90
58413;DHT22;44209;52.952;6.790;2023-06-10T02:32:23;15.40;99.90
58413;DHT22;44209;52.952;6.790;2023-06-10T02:34:48;15.30;99.90
58413;DHT22;44209;52.952;6.790;2023-06-10T02:37:15;15.20;99.90
58413;DHT22;44209;52.952;6.790;2023-06-10T02:39:41;15.20;99.90
58413;DHT22;44209;52.952;6.790;2023-06-10T02:42:07;15.20;99.90
58413;DHT22;44209;52.952;6.790;2023-06-10T02:44:33;15.10;99.90
58413;DHT22;44209;52.952;6.790;2023-06-10T02:46:59;15.10;99.90
58413;DHT22;44209;52.952;6.790;2023-06-10T02:49:25;15.10;99.90
58413;DHT22;44209;52.952;6.790;2023-06-10T02:51:53;15.00;99.90
58413;DHT22;44209;52.952;6.790;2023-06-10T02:54:25;14.90;99.90
58413;DHT22;44209;52.952;6.790;2023-06-10T02:56:51;14.90;99.90
58413;DHT22;44209;52.952;6.790;2023-06-10T02:59:18;14.90;99.90
58413;DHT22;44209;52.952;6.790;2023-06-10T03:01:44;14.80;99.90
58413;DHT22;44209;52.952;6.790;2023-06-10T03:04:09;14.80;99.90
58413;DHT22;44209;52.952;6.790;2023-06-10T03:06:39;14.80;99.90
58413;DHT22;44209;52.952;6.790;2023-06-10T03:09:06;14.70;99.90
58413;DHT22;44209;52.952;6.790;2023-06-10T03:11:35;14.70;99.90
58413;DHT22;44209;52.952;6.790;2023-06-10T03:14:01;14.70;99.90
58413;DHT22;44209;52.952;6.790;2023-06-10T03:16:27;14.60;99.90
58413;DHT22;44209;52.952;6.790;2023-06-10T03:18:53;14.60;99.90
58413;DHT22;44209;52.952;6.790;2023-06-10T03:21:19;14.60;99.90
58413;DHT22;44209;52.952;6.790;2023-06-10T03:23:45;14.60;99.90
58413;DHT22;44209;52.952;6.790;2023-06-10T03:26:11;14.50;99.90
58413;DHT22;44209;52.952;6.790;2023-06-10T03:28:37;14.50;99.90
58413;DHT22;44209;52.952;6.790;2023-06-10T03:31:03;14.50;99.90
58413;DHT22;44209;52.952;6.790;2023-06-10T03:33:29;14.50;99.90
58413;DHT22;44209;52.952;6.790;2023-06-10T03:35:55;14.40;99.90
58413;DHT22;44209;52.952;6.790;2023-06-10T03:38:21;14.50;99.90
58413;DHT22;44209;52.952;6.790;2023-06-10T03:40:47;14.50;99.90
58413;DHT22;44209;52.952;6.790;2023-06-10T03:43:13;14.70;99.90
58413;DHT22;44209;52.952;6.790;2023-06-10T03:45:38;15.10;99.90
58413;DHT22;44209;52.952;6.790;2023-06-10T03:48:04;15.30;99.90
58413;DHT22;44209;52.952;6.790;2023-06-10T03:50:31;15.20;99.90
58413;DHT22;44209;52.952;6.790;2023-06-10T03:52:58;15.10;99.90
58413;DHT22;44209;52.952;6.790;2023-06-10T03:55:23;15.00;99.90
58413;DHT22;44209;52.952;6.790;2023-06-10T03:57:49;14.90;99.90
58413;DHT22;44209;52.952;6.790;2023-06-10T04:00:16;14.80;99.90
58413;DHT22;44209;52.952;6.790;2023-06-10T04:02:43;14.70;99.90
58413;DHT22;44209;52.952;6.790;2023-06-10T04:05:13;14.60;99.90
58413;DHT22;44209;52.952;6.790;2023-06-10T04:07:39;14.50;99.90
58413;DHT22;44209;52.952;6.790;2023-06-10T04:10:12;14.50;99.90
58413;DHT22;44209;52.952;6.790;2023-06-10T04:12:38;14.40;99.90
58413;DHT22;44209;52.952;6.790;2023-06-10T04:15:04;14.40;99.90
58413;DHT22;44209;52.952;6.790;2023-06-10T04:17:31;14.30;99.90
58413;DHT22;44209;52.952;6.790;2023-06-10T04:19:57;14.30;99.90
58413;DHT22;44209;52.952;6.790;2023-06-10T04:22:24;14.30;99.90
58413;DHT22;44209;52.952;6.790;2023-06-10T04:24:49;14.30;99.90
58413;DHT22;44209;52.952;6.790;2023-06-10T04:27:15;14.30;99.90
58413;DHT22;44209;52.952;6.790;2023-06-10T04:29:41;14.40;99.90
58413;DHT22;44209;52.952;6.790;2023-06-10T04:32:07;14.60;99.90
58413;DHT22;44209;52.952;6.790;2023-06-10T04:34:33;14.70;99.90
58413;DHT22;44209;52.952;6.790;2023-06-10T04:36:59;14.60;99.90
58413;DHT22;44209;52.952;6.790;2023-06-10T04:39:25;14.60;99.90
58413;DHT22;44209;52.952;6.790;2023-06-10T04:41:52;14.60;99.90
58413;DHT22;44209;52.952;6.790;2023-06-10T04:44:18;14.60;99.90
58413;DHT22;44209;52.952;6.790;2023-06-10T04:46:44;14.70;99.90
58413;DHT22;44209;52.952;6.790;2023-06-10T04:49:10;14.80;99.90
58413;DHT22;44209;52.952;6.790;2023-06-10T04:51:36;14.80;99.90
58413;DHT22;44209;52.952;6.790;2023-06-10T04:54:03;14.80;99.90
58413;DHT22;44209;52.952;6.790;2023-06-10T04:56:32;14.80;99.90
58413;DHT22;44209;52.952;6.790;2023-06-10T04:58:58;14.80;99.90
58413;DHT22;44209;52.952;6.790;2023-06-10T05:01:24;14.80;99.90
58413;DHT22;44209;52.952;6.790;2023-06-10T05:03:50;14.80;99.90
58413;DHT22;44209;52.952;6.790;2023-06-10T05:06:16;14.90;99.90
58413;DHT22;44209;52.952;6.790;2023-06-10T05:08:42;14.90;99.90
58413;DHT22;44209;52.952;6.790;2023-06-10T05:11:07;14.90;99.90
58413;DHT22;44209;52.952;6.790;2023-06-10T05:13:34;15.00;99.90
58413;DHT22;44209;52.952;6.790;2023-06-10T05:16:00;15.00;99.90
58413;DHT22;44209;52.952;6.790;2023-06-10T05:18:25;15.10;99.90
58413;DHT22;44209;52.952;6.790;2023-06-10T05:20:52;15.10;99.90
58413;DHT22;44209;52.952;6.790;2023-06-10T05:23:19;15.20;99.90
58413;DHT22;44209;52.952;6.790;2023-06-10T05:25:45;15.30;99.90
58413;DHT22;44209;52.952;6.790;2023-06-10T05:28:11;15.30;99.90
58413;DHT22;44209;52.952;6.790;2023-06-10T05:30:37;15.30;99.90
58413;DHT22;44209;52.952;6.790;2023-06-10T05:33:04;15.30;99.90
58413;DHT22;44209;52.952;6.790;2023-06-10T05:35:30;15.30;99.90
58413;DHT22;44209;52.952;6.790;2023-06-10T05:37:56;15.40;99.90
58413;DHT22;44209;52.952;6.790;2023-06-10T05:40:21;15.40;99.90
58413;DHT22;44209;52.952;6.790;2023-06-10T05:42:47;15.50;99.90
58413;DHT22;44209;52.952;6.790;2023-06-10T05:45:13;15.60;99.90
58413;DHT22;44209;52.952;6.790;2023-06-10T05:47:40;15.60;99.90
58413;DHT22;44209;52.952;6.790;2023-06-10T05:50:06;15.70;99.90
58413;DHT22;44209;52.952;6.790;2023-06-10T05:52:35;15.80;99.90
58413;DHT22;44209;52.952;6.790;2023-06-10T05:55:03;15.90;99.90
58413;DHT22;44209;52.952;6.790;2023-06-10T05:57:29;15.90;99.90
58413;DHT22;44209;52.952;6.790;2023-06-10T05:59:55;16.00;99.90
58413;DHT22;44209;52.952;6.790;2023-06-10T06:02:21;16.10;99.90
58413;DHT22;44209;52.952;6.790;2023-06-10T06:04:46;16.20;99.90
58413;DHT22;44209;52.952;6.790;2023-06-10T06:07:12;16.30;99.90
58413;DHT22;44209;52.952;6.790;2023-06-10T06:09:38;16.50;99.90
58413;DHT22;44209;52.952;6.790;2023-06-10T06:12:04;16.70;99.90
58413;DHT22;44209;52.952;6.790;2023-06-10T06:14:31;16.70;99.90
58413;DHT22;44209;52.952;6.790;2023-06-10T06:16:59;16.70;99.90
58413;DHT22;44209;52.952;6.790;2023-06-10T06:19:25;16.80;99.90
58413;DHT22;44209;52.952;6.790;2023-06-10T06:21:51;16.90;99.90
58413;DHT22;44209;52.952;6.790;2023-06-10T06:24:17;17.00;99.90
58413;DHT22;44209;52.952;6.790;2023-06-10T06:26:42;17.10;99.90
58413;DHT22;44209;52.952;6.790;2023-06-10T06:29:08;17.30;99.90
58413;DHT22;44209;52.952;6.790;2023-06-10T06:31:33;17.40;99.90
58413;DHT22;44209;52.952;6.790;2023-06-10T06:33:59;17.60;99.90
58413;DHT22;44209;52.952;6.790;2023-06-10T06:36:25;17.60;99.90
58413;DHT22;44209;52.952;6.790;2023-06-10T06:38:51;17.50;99.90
58413;DHT22;44209;52.952;6.790;2023-06-10T06:41:17;17.60;99.90
58413;DHT22;44209;52.952;6.790;2023-06-10T06:43:43;17.60;99.90
58413;DHT22;44209;52.952;6.790;2023-06-10T06:46:09;17.70;99.90
58413;DHT22;44209;52.952;6.790;2023-06-10T06:48:35;17.70;99.90
58413;DHT22;44209;52.952;6.790;2023-06-10T06:51:01;17.80;99.90
58413;DHT22;44209;52.952;6.790;2023-06-10T06:53:26;17.80;99.90
58413;DHT22;44209;52.952;6.790;2023-06-10T06:55:52;17.90;99.90
58413;DHT22;44209;52.952;6.790;2023-06-10T06:58:18;18.00;99.90
58413;DHT22;44209;52.952;6.790;2023-06-10T07:00:43;18.10;99.90
58413;DHT22;44209;52.952;6.790;2023-06-10T07:03:09;18.30;99.90
58413;DHT22;44209;52.952;6.790;2023-06-10T07:05:35;18.30;99.90
58413;DHT22;44209;52.952;6.790;2023-06-10T07:08:01;18.50;99.90
58413;DHT22;44209;52.952;6.790;2023-06-10T07:10:28;18.60;99.90
58413;DHT22;44209;52.952;6.790;2023-06-10T07:12:54;18.70;99.90
58413;DHT22;44209;52.952;6.790;2023-06-10T07:15:20;18.90;99.90
58413;DHT22;44209;52.952;6.790;2023-06-10T07:17:46;19.20;99.90
58413;DHT22;44209;52.952;6.790;2023-06-10T07:20:12;19.30;99.90
58413;DHT22;44209;52.952;6.790;2023-06-10T07:22:37;19.50;99.90
58413;DHT22;44209;52.952;6.790;2023-06-10T07:25:06;19.50;99.90
58413;DHT22;44209;52.952;6.790;2023-06-10T07:27:32;19.60;99.90
58413;DHT22;44209;52.952;6.790;2023-06-10T07:29:58;19.70;99.90
58413;DHT22;44209;52.952;6.790;2023-06-10T07:32:23;19.70;99.90
58413;DHT22;44209;52.952;6.790;2023-06-10T07:34:50;19.60;99.90
58413;DHT22;44209;52.952;6.790;2023-06-10T07:37:16;19.80;99.90
58413;DHT22;44209;52.952;6.790;2023-06-10T07:39:42;20.00;99.90
58413;DHT22;44209;52.952;6.790;2023-06-10T07:42:08;20.00;99.90
58413;DHT22;44209;52.952;6.790;2023-06-10T07:44:34;20.20;99.90
58413;DHT22;44209;52.952;6.790;2023-06-10T07:47:00;20.20;99.90
58413;DHT22;44209;52.952;6.790;2023-06-10T07:49:26;20.20;99.90
58413;DHT22;44209;52.952;6.790;2023-06-10T07:51:54;20.30;99.90
58413;DHT22;44209;52.952;6.790;2023-06-10T07:54:21;20.40;99.90
58413;DHT22;44209;52.952;6.790;2023-06-10T07:56:47;20.60;99.90
58413;DHT22;44209;52.952;6.790;2023-06-10T07:59:13;20.90;99.90
58413;DHT22;44209;52.952;6.790;2023-06-10T08:01:39;21.00;99.90
58413;DHT22;44209;52.952;6.790;2023-06-10T08:04:06;21.10;99.90
58413;DHT22;44209;52.952;6.790;2023-06-10T08:06:32;21.40;99.90
58413;DHT22;44209;52.952;6.790;2023-06-10T08:08:58;21.50;99.90
58413;DHT22;44209;52.952;6.790;2023-06-10T08:11:25;21.50;99.90
58413;DHT22;44209;52.952;6.790;2023-06-10T08:13:54;21.40;99.90
58413;DHT22;44209;52.952;6.790;2023-06-10T08:16:19;21.50;99.90
58413;DHT22;44209;52.952;6.790;2023-06-10T08:18:45;21.50;99.90
58413;DHT22;44209;52.952;6.790;2023-06-10T08:21:11;21.80;99.90
58413;DHT22;44209;52.952;6.790;2023-06-10T08:23:36;22.00;99.90
58413;DHT22;44209;52.952;6.790;2023-06-10T08:26:02;21.90;99.90
58413;DHT22;44209;52.952;6.790;2023-06-10T08:28:28;21.90;99.90
58413;DHT22;44209;52.952;6.790;2023-06-10T08:30:53;22.10;99.90
58413;DHT22;44209;52.952;6.790;2023-06-10T08:33:19;22.20;99.90
58413;DHT22;44209;52.952;6.790;2023-06-10T08:35:45;22.40;99.90
58413;DHT22;44209;52.952;6.790;2023-06-10T08:38:10;22.20;99.90
58413;DHT22;44209;52.952;6.790;2023-06-10T08:40:37;22.40;99.90
58413;DHT22;44209;52.952;6.790;2023-06-10T08:43:07;22.50;99.90
58413;DHT22;44209;52.952;6.790;2023-06-10T08:45:35;22.40;99.90
58413;DHT22;44209;52.952;6.790;2023-06-10T08:48:03;22.30;99.90
58413;DHT22;44209;52.952;6.790;2023-06-10T08:50:36;22.30;99.90
58413;DHT22;44209;52.952;6.790;2023-06-10T08:53:05;22.40;99.90
58413;DHT22;44209;52.952;6.790;2023-06-10T08:55:38;22.60;99.90
58413;DHT22;44209;52.952;6.790;2023-06-10T08:58:07;22.80;99.90
58413;DHT22;44209;52.952;6.790;2023-06-10T09:00:34;23.00;99.90
58413;DHT22;44209;52.952;6.790;2023-06-10T09:03:00;23.30;99.90
58413;DHT22;44209;52.952;6.790;2023-06-10T09:05:29;23.50;99.90
58413;DHT22;44209;52.952;6.790;2023-06-10T09:07:57;23.70;99.90
58413;DHT22;44209;52.952;6.790;2023-06-10T09:10:22;23.80;99.90
58413;DHT22;44209;52.952;6.790;2023-06-10T09:12:48;23.70;99.30
58413;DHT22;44209;52.952;6.790;2023-06-10T09:15:14;23.80;94.00
58413;DHT22;44209;52.952;6.790;2023-06-10T09:17:40;23.90;98.20
58413;DHT22;44209;52.952;6.790;2023-06-10T09:20:10;24.00;97.10
58413;DHT22;44209;52.952;6.790;2023-06-10T09:22:36;23.80;99.90
58413;DHT22;44209;52.952;6.790;2023-06-10T09:25:10;23.90;99.90
58413;DHT22;44209;52.952;6.790;2023-06-10T09:27:51;23.80;95.00
58413;DHT22;44209;52.952;6.790;2023-06-10T09:30:25;24.00;97.70
58413;DHT22;44209;52.952;6.790;2023-06-10T09:32:55;24.20;83.50
58413;DHT22;44209;52.952;6.790;2023-06-10T09:35:23;24.10;87.30
58413;DHT22;44209;52.952;6.790;2023-06-10T09:37:54;23.80;90.80
58413;DHT22;44209;52.952;6.790;2023-06-10T09:40:20;23.80;88.10
58413;DHT22;44209;52.952;6.790;2023-06-10T09:42:45;23.80;87.20
58413;DHT22;44209;52.952;6.790;2023-06-10T09:45:14;23.80;84.90
58413;DHT22;44209;52.952;6.790;2023-06-10T09:47:40;24.20;82.10
58413;DHT22;44209;52.952;6.790;2023-06-10T09:50:06;24.30;82.50
58413;DHT22;44209;52.952;6.790;2023-06-10T09:52:32;24.50;82.70
58413;DHT22;44209;52.952;6.790;2023-06-10T09:55:02;24.50;75.00
58413;DHT22;44209;52.952;6.790;2023-06-10T09:57:32;24.50;69.40
58413;DHT22;44209;52.952;6.790;2023-06-10T10:00:08;24.70;67.60
58413;DHT22;44209;52.952;6.790;2023-06-10T10:02:51;24.70;67.50
58413;DHT22;44209;52.952;6.790;2023-06-10T10:05:21;24.90;66.60
58413;DHT22;44209;52.952;6.790;2023-06-10T10:07:48;25.00;65.90
58413;DHT22;44209;52.952;6.790;2023-06-10T10:10:16;25.20;65.90
58413;DHT22;44209;52.952;6.790;2023-06-10T10:12:42;25.30;67.30
58413;DHT22;44209;52.952;6.790;2023-06-10T10:15:10;25.60;67.30
58413;DHT22;44209;52.952;6.790;2023-06-10T10:17:51;25.90;65.70
58413;DHT22;44209;52.952;6.790;2023-06-10T10:20:20;26.00;63.10
58413;DHT22;44209;52.952;6.790;2023-06-10T10:22:49;26.10;65.40
58413;DHT22;44209;52.952;6.790;2023-06-10T10:25:28;26.20;63.80
58413;DHT22;44209;52.952;6.790;2023-06-10T10:27:59;26.10;62.40
58413;DHT22;44209;52.952;6.790;2023-06-10T10:30:30;26.10;61.40
58413;DHT22;44209;52.952;6.790;2023-06-10T10:33:19;26.10;61.80
58413;DHT22;44209;52.952;6.790;2023-06-10T10:35:49;25.90;62.70
58413;DHT22;44209;52.952;6.790;2023-06-10T10:38:15;25.80;61.70
58413;DHT22;44209;52.952;6.790;2023-06-10T10:40:42;25.90;60.90
58413;DHT22;44209;52.952;6.790;2023-06-10T10:43:09;25.80;58.00
58413;DHT22;44209;52.952;6.790;2023-06-10T10:45:36;25.70;57.60
58413;DHT22;44209;52.952;6.790;2023-06-10T10:48:07;25.80;58.40
58413;DHT22;44209;52.952;6.790;2023-06-10T10:50:35;25.90;58.10
58413;DHT22;44209;52.952;6.790;2023-06-10T10:53:02;26.10;58.60
58413;DHT22;44209;52.952;6.790;2023-06-10T10:55:28;26.20;58.40
58413;DHT22;44209;52.952;6.790;2023-06-10T11:00:31;26.50;57.10
58413;DHT22;44209;52.952;6.790;2023-06-10T11:03:16;26.40;56.00
58413;DHT22;44209;52.952;6.790;2023-06-10T11:05:44;26.50;56.90
58413;DHT22;44209;52.952;6.790;2023-06-10T11:08:13;26.60;57.70
58413;DHT22;44209;52.952;6.790;2023-06-10T11:10:42;26.70;57.50
58413;DHT22;44209;52.952;6.790;2023-06-10T11:13:18;27.00;57.90
58413;DHT22;44209;52.952;6.790;2023-06-10T11:15:46;27.10;57.50
58413;DHT22;44209;52.952;6.790;2023-06-10T11:18:23;26.90;56.40
58413;DHT22;44209;52.952;6.790;2023-06-10T11:31:41;27.10;57.10
58413;DHT22;44209;52.952;6.790;2023-06-10T11:34:07;27.10;56.10
58413;DHT22;44209;52.952;6.790;2023-06-10T11:36:38;27.10;54.30
58413;DHT22;44209;52.952;6.790;2023-06-10T11:39:06;27.20;54.70
58413;DHT22;44209;52.952;6.790;2023-06-10T11:41:33;27.30;55.60
58413;DHT22;44209;52.952;6.790;2023-06-10T11:44:17;27.30;55.60
58413;DHT22;44209;52.952;6.790;2023-06-10T11:46:44;27.30;56.70
58413;DHT22;44209;52.952;6.790;2023-06-10T11:49:11;27.30;55.90
58413;DHT22;44209;52.952;6.790;2023-06-10T11:51:38;27.30;56.40
58413;DHT22;44209;52.952;6.790;2023-06-10T11:54:07;27.40;55.80
58413;DHT22;44209;52.952;6.790;2023-06-10T11:56:33;27.50;55.00
58413;DHT22;44209;52.952;6.790;2023-06-10T11:59:04;27.50;55.10
58413;DHT22;44209;52.952;6.790;2023-06-10T12:01:32;27.50;53.90
58413;DHT22;44209;52.952;6.790;2023-06-10T12:04:03;27.80;53.70
58413;DHT22;44209;52.952;6.790;2023-06-10T12:06:40;28.20;54.10
58413;DHT22;44209;52.952;6.790;2023-06-10T12:09:09;28.20;54.00
58413;DHT22;44209;52.952;6.790;2023-06-10T12:11:38;28.10;53.70
58413;DHT22;44209;52.952;6.790;2023-06-10T12:14:05;28.10;52.50
58413;DHT22;44209;52.952;6.790;2023-06-10T12:16:31;28.10;52.10
58413;DHT22;44209;52.952;6.790;2023-06-10T12:19:04;28.10;52.00
58413;DHT22;44209;52.952;6.790;2023-06-10T12:21:32;28.20;51.60
58413;DHT22;44209;52.952;6.790;2023-06-10T12:24:11;28.50;51.10
58413;DHT22;44209;52.952;6.790;2023-06-10T12:26:44;28.70;50.80
58413;DHT22;44209;52.952;6.790;2023-06-10T12:29:17;28.80;50.80
58413;DHT22;44209;52.952;6.790;2023-06-10T12:32:04;28.90;49.40
58413;DHT22;44209;52.952;6.790;2023-06-10T12:34:38;28.90;48.60
58413;DHT22;44209;52.952;6.790;2023-06-10T12:37:11;28.80;48.30
58413;DHT22;44209;52.952;6.790;2023-06-10T12:39:39;28.80;49.30
58413;DHT22;44209;52.952;6.790;2023-06-10T12:42:06;29.00;49.50
58413;DHT22;44209;52.952;6.790;2023-06-10T12:44:39;28.90;49.40
58413;DHT22;44209;52.952;6.790;2023-06-10T12:47:11;28.60;48.70
58413;DHT22;44209;52.952;6.790;2023-06-10T12:49:38;28.50;49.40
58413;DHT22;44209;52.952;6.790;2023-06-10T12:52:05;28.50;49.80
58413;DHT22;44209;52.952;6.790;2023-06-10T12:54:31;28.50;49.50
58413;DHT22;44209;52.952;6.790;2023-06-10T12:56:56;28.70;50.20
58413;DHT22;44209;52.952;6.790;2023-06-10T12:59:22;28.80;49.50
58413;DHT22;44209;52.952;6.790;2023-06-10T13:01:53;29.00;49.60
58413;DHT22;44209;52.952;6.790;2023-06-10T13:04:20;28.80;48.70
58413;DHT22;44209;52.952;6.790;2023-06-10T13:06:47;28.60;49.80
58413;DHT22;44209;52.952;6.790;2023-06-10T13:09:13;28.50;50.10
58413;DHT22;44209;52.952;6.790;2023-06-10T13:11:40;28.40;49.60
58413;DHT22;44209;52.952;6.790;2023-06-10T13:14:06;28.50;50.50
58413;DHT22;44209;52.952;6.790;2023-06-10T13:16:32;28.60;50.20
58413;DHT22;44209;52.952;6.790;2023-06-10T13:18:58;28.60;49.50
58413;DHT22;44209;52.952;6.790;2023-06-10T13:21:24;28.50;48.60
58413;DHT22;44209;52.952;6.790;2023-06-10T13:23:51;28.70;49.90
58413;DHT22;44209;52.952;6.790;2023-06-10T13:26:17;28.70;49.40
58413;DHT22;44209;52.952;6.790;2023-06-10T13:28:44;28.70;49.60
58413;DHT22;44209;52.952;6.790;2023-06-10T13:31:10;28.60;50.10
58413;DHT22;44209;52.952;6.790;2023-06-10T13:33:36;28.70;50.00
58413;DHT22;44209;52.952;6.790;2023-06-10T13:36:01;28.90;49.90
58413;DHT22;44209;52.952;6.790;2023-06-10T13:38:27;28.80;49.10
58413;DHT22;44209;52.952;6.790;2023-06-10T13:40:53;28.90;49.10
58413;DHT22;44209;52.952;6.790;2023-06-10T13:43:19;29.00;49.60
58413;DHT22;44209;52.952;6.790;2023-06-10T13:45:44;29.10;48.80
58413;DHT22;44209;52.952;6.790;2023-06-10T13:48:10;29.20;48.70
58413;DHT22;44209;52.952;6.790;2023-06-10T13:50:37;29.20;48.80
58413;DHT22;44209;52.952;6.790;2023-06-10T13:53:03;29.30;49.30
58413;DHT22;44209;52.952;6.790;2023-06-10T13:55:28;29.40;48.70
58413;DHT22;44209;52.952;6.790;2023-06-10T13:57:54;29.20;48.70
58413;DHT22;44209;52.952;6.790;2023-06-10T14:00:20;29.00;48.50
58413;DHT22;44209;52.952;6.790;2023-06-10T14:02:46;29.00;48.80
58413;DHT22;44209;52.952;6.790;2023-06-10T14:05:12;28.80;48.70
58413;DHT22;44209;52.952;6.790;2023-06-10T14:07:38;28.90;48.00
58413;DHT22;44209;52.952;6.790;2023-06-10T14:10:05;29.10;47.30
58413;DHT22;44209;52.952;6.790;2023-06-10T14:12:31;29.30;47.20
58413;DHT22;44209;52.952;6.790;2023-06-10T14:14:57;29.40;47.50
58413;DHT22;44209;52.952;6.790;2023-06-10T14:17:22;29.50;46.90
58413;DHT22;44209;52.952;6.790;2023-06-10T14:19:49;29.60;47.00
58413;DHT22;44209;52.952;6.790;2023-06-10T14:22:14;29.40;47.00
58413;DHT22;44209;52.952;6.790;2023-06-10T14:24:40;29.20;47.70
58413;DHT22;44209;52.952;6.790;2023-06-10T14:27:06;29.20;48.20
58413;DHT22;44209;52.952;6.790;2023-06-10T14:29:32;29.30;48.10
58413;DHT22;44209;52.952;6.790;2023-06-10T14:31:59;29.50;48.90
58413;DHT22;44209;52.952;6.790;2023-06-10T14:34:25;29.70;49.00
58413;DHT22;44209;52.952;6.790;2023-06-10T14:36:54;29.80;48.00
58413;DHT22;44209;52.952;6.790;2023-06-10T14:39:20;29.90;45.80
58413;DHT22;44209;52.952;6.790;2023-06-10T14:41:46;30.00;44.90
58413;DHT22;44209;52.952;6.790;2023-06-10T14:44:12;30.00;43.00
58413;DHT22;44209;52.952;6.790;2023-06-10T14:46:37;30.00;41.80
58413;DHT22;44209;52.952;6.790;2023-06-10T14:49:03;30.00;40.80
58413;DHT22;44209;52.952;6.790;2023-06-10T14:51:28;30.00;40.60
58413;DHT22;44209;52.952;6.790;2023-06-10T14:53:54;30.10;41.40
58413;DHT22;44209;52.952;6.790;2023-06-10T14:56:20;30.20;40.60
58413;DHT22;44209;52.952;6.790;2023-06-10T14:58:45;30.30;41.10
58413;DHT22;44209;52.952;6.790;2023-06-10T15:01:11;30.40;40.80
58413;DHT22;44209;52.952;6.790;2023-06-10T15:03:37;30.50;40.90
58413;DHT22;44209;52.952;6.790;2023-06-10T15:06:03;30.50;40.30
58413;DHT22;44209;52.952;6.790;2023-06-10T15:08:28;30.60;40.00
58413;DHT22;44209;52.952;6.790;2023-06-10T15:10:54;30.60;39.60
58413;DHT22;44209;52.952;6.790;2023-06-10T15:13:20;30.40;39.60
58413;DHT22;44209;52.952;6.790;2023-06-10T15:15:45;30.10;39.80
58413;DHT22;44209;52.952;6.790;2023-06-10T15:18:11;30.00;40.70
58413;DHT22;44209;52.952;6.790;2023-06-10T15:20:37;30.00;40.60
58413;DHT22;44209;52.952;6.790;2023-06-10T15:23:02;29.90;40.70
58413;DHT22;44209;52.952;6.790;2023-06-10T15:25:28;29.80;40.70
58413;DHT22;44209;52.952;6.790;2023-06-10T15:27:54;29.70;40.60
58413;DHT22;44209;52.952;6.790;2023-06-10T15:30:20;29.70;40.30
58413;DHT22;44209;52.952;6.790;2023-06-10T15:32:45;29.80;40.20
58413;DHT22;44209;52.952;6.790;2023-06-10T15:35:11;29.90;40.30
58413;DHT22;44209;52.952;6.790;2023-06-10T15:37:37;29.90;40.10
58413;DHT22;44209;52.952;6.790;2023-06-10T15:40:03;29.90;39.90
58413;DHT22;44209;52.952;6.790;2023-06-10T15:42:29;30.10;40.60
58413;DHT22;44209;52.952;6.790;2023-06-10T15:44:55;30.20;40.70
58413;DHT22;44209;52.952;6.790;2023-06-10T15:47:20;30.20;40.80